Redding Municipal Airport
KRDD : now visible

Airfield :











YOU CAN JOIN US ON...

 
LOGIN :

Register | Disclaimer

   EN    FR    IT 

 









Legend :    VFR   Marginal VFR   IFR   Intensive IFR   Very Intensive IFR
Visi :
Ceiling :
>= 8 km
>= 3000ft
5 to 8 km
1000 to 3000 ft
1500m to 5 km
500 to 1000 ft
800 to 1500m
200 to 500 ft
< 800m
< 200 ft
Symbols :   Thunderstorms  Fog  Heavy snow  Heavy precipitations  Wind > 20 kt







- Airport Elevation : 505 ft
- IATA code : RDD


KRDD - Redding Municipal

CURRENT METAR :
  • 181153Z AUTO 00000KT 10SM FEW050 OVC080 15/13 A2987 RMK AO2 SLP112 60008 70008 T01500133 10222 20150 55002

EXPIRED METARs :
  • 181053Z AUTO 05004KT 10SM SCT048 BKN100 15/13 A2987 RMK AO2 RAE09 SLP110 P0001 T01500133
  • 180953Z AUTO 09005KT 10SM -RA BKN055 OVC070 16/14 A2988 RMK AO2 RAB53 SLP114 P0000 T01610139
  • 180853Z AUTO 35006KT 10SM OVC060 17/14 A2988 RMK AO2 RAE46 SLP114 P0006 60007 T01670139 53007

TAF KRDD
Valid from the 18 at 12:00 until the 19 at 12:00 UTC


181136Z 1812/1912 VRB05KT P6SM -SHRA BKN035 OVC050
FM181600 18003KT P6SM VCSH BKN025
FM182100 18009KT P6SM BKN050
TEMPO 1821/1901 -TSRA BKN025CB
FM190100 35005KT P6SM OVC050
No reported NOTAMs for that airfield.



MET'MAP, your aeronautical weather chart ! - Copyright ORBIFLY December 2007 - Disclaimer

ORBIFLY MET'MAP TEAM :

Programming & Development : Alexandra Zaïnal
Concept & Development : Baudouin d'Aumeries
Co-Development & Prog : Marc-Olivier Méhu
Technical & hardware support : Manuel Goepfert

Contact : metmap@orbifly.com




SOURCES & CREDITS :

   NOAA       Earth
Advisory